createdAt,value
2023-02-22T00:00:43.144Z,9.70
2023-02-22T00:03:28.469Z,8.60
2023-02-22T00:05:58.466Z,12.20
2023-02-22T00:08:30.386Z,10.20
2023-02-22T00:10:59.687Z,9.50
2023-02-22T00:13:30.996Z,9.60
2023-02-22T00:16:00.192Z,9.30
2023-02-22T00:18:29.246Z,9.20
2023-02-22T00:21:01.075Z,9.60
2023-02-22T00:23:30.590Z,8.00
2023-02-22T00:25:59.622Z,8.50
2023-02-22T00:28:27.808Z,9.00
2023-02-22T00:30:55.419Z,8.30
2023-02-22T00:33:23.331Z,8.90
2023-02-22T00:35:51.195Z,8.00
2023-02-22T00:38:19.582Z,8.30
2023-02-22T00:40:47.166Z,8.10
2023-02-22T00:43:15.412Z,9.40
2023-02-22T00:45:43.114Z,9.40
2023-02-22T00:48:11.055Z,8.80
2023-02-22T00:50:39.113Z,10.10
2023-02-22T00:53:07.778Z,8.70
2023-02-22T00:55:37.026Z,9.20
2023-02-22T00:58:05.652Z,9.10
2023-02-22T01:00:37.249Z,8.80
2023-02-22T01:03:06.782Z,9.10
2023-02-22T01:05:38.136Z,8.30
2023-02-22T01:08:07.229Z,8.60
2023-02-22T01:10:35.923Z,8.40
2023-02-22T01:13:09.158Z,8.10
2023-02-22T01:15:39.087Z,9.30
2023-02-22T01:18:07.627Z,8.80
2023-02-22T01:20:36.022Z,9.00
2023-02-22T01:23:07.112Z,8.10
2023-02-22T01:25:35.982Z,8.60
2023-02-22T01:28:06.266Z,8.00
2023-02-22T01:30:35.719Z,8.40
2023-02-22T01:33:06.025Z,8.40
2023-02-22T01:35:36.344Z,8.50
2023-02-22T01:38:04.026Z,8.00
2023-02-22T01:40:34.484Z,8.30
2023-02-22T01:43:16.974Z,7.10
2023-02-22T01:45:56.757Z,8.00
2023-02-22T01:48:29.546Z,8.30
2023-02-22T01:50:57.780Z,7.20
2023-02-22T01:53:30.374Z,8.60
2023-02-22T01:55:58.272Z,8.10
2023-02-22T01:58:28.296Z,7.80
2023-02-22T02:00:57.790Z,7.20
2023-02-22T02:03:29.775Z,8.10
2023-02-22T02:06:01.739Z,7.90
2023-02-22T02:08:49.737Z,7.40
2023-02-22T02:11:24.940Z,7.60
2023-02-22T02:13:57.405Z,7.70
2023-02-22T02:16:29.135Z,8.30
2023-02-22T02:18:56.745Z,8.30
2023-02-22T02:21:49.939Z,8.20
2023-02-22T02:24:39.722Z,8.00
2023-02-22T02:27:14.703Z,8.90
2023-02-22T02:30:02.680Z,7.70
2023-02-22T02:32:49.176Z,9.30
2023-02-22T02:35:36.803Z,7.50
2023-02-22T02:38:41.525Z,8.80
2023-02-22T02:41:27.386Z,8.40
2023-02-22T02:44:04.822Z,8.20
2023-02-22T02:46:35.999Z,7.40
2023-02-22T02:49:12.812Z,7.80
2023-02-22T02:51:43.120Z,8.50
2023-02-22T02:54:12.838Z,8.40
2023-02-22T02:56:42.817Z,7.70
2023-02-22T02:59:31.745Z,9.20
2023-02-22T03:02:41.220Z,8.50
2023-02-22T03:05:36.339Z,8.00
2023-02-22T03:08:30.885Z,8.50
2023-02-22T03:11:15.342Z,8.20
2023-02-22T03:14:22.860Z,8.30
2023-02-22T03:17:19.973Z,8.80
2023-02-22T03:19:53.602Z,9.60
2023-02-22T03:22:32.514Z,9.70
2023-02-22T03:25:07.514Z,8.60
2023-02-22T03:27:43.570Z,8.50
2023-02-22T03:30:17.836Z,9.10
2023-02-22T03:32:49.588Z,9.40
2023-02-22T03:35:32.169Z,9.50
2023-02-22T03:38:02.935Z,9.00
2023-02-22T03:40:36.043Z,8.50
2023-02-22T03:43:07.786Z,9.70
2023-02-22T03:45:40.835Z,9.00
2023-02-22T03:48:14.952Z,9.20
2023-02-22T03:50:43.026Z,9.50
2023-02-22T03:53:11.204Z,9.10
2023-02-22T03:55:41.677Z,9.10
2023-02-22T03:58:11.860Z,9.10
2023-02-22T04:00:44.487Z,9.30
2023-02-22T04:03:12.725Z,10.00
2023-02-22T04:05:40.745Z,9.40
2023-02-22T04:08:08.437Z,9.70
2023-02-22T04:10:37.885Z,9.40
2023-02-22T04:13:07.106Z,9.80
2023-02-22T04:15:36.890Z,9.50
2023-02-22T04:18:06.617Z,8.50
2023-02-22T04:20:34.966Z,10.10
2023-02-22T04:23:12.259Z,8.90
2023-02-22T04:25:42.338Z,8.60
2023-02-22T04:28:14.558Z,9.70
2023-02-22T04:30:47.264Z,9.30
2023-02-22T04:33:16.958Z,9.10
2023-02-22T04:35:45.483Z,9.70
2023-02-22T04:38:14.147Z,8.90
2023-02-22T04:40:42.167Z,8.70
2023-02-22T04:43:10.163Z,8.30
2023-02-22T04:45:38.211Z,8.00
2023-02-22T04:48:06.844Z,8.20
2023-02-22T04:50:34.572Z,7.60
2023-02-22T04:53:03.941Z,7.90
2023-02-22T04:55:31.608Z,7.50
2023-02-22T04:57:59.462Z,7.70
2023-02-22T05:00:27.535Z,8.00
2023-02-22T05:03:00.156Z,6.30
2023-02-22T05:05:28.064Z,7.50
2023-02-22T05:07:55.705Z,7.20
2023-02-22T05:10:24.772Z,7.20
2023-02-22T05:12:52.473Z,7.40
2023-02-22T05:15:21.732Z,7.60
2023-02-22T05:17:49.367Z,7.90
2023-02-22T05:20:29.571Z,8.00
2023-02-22T05:22:59.254Z,7.10
2023-02-22T05:25:27.221Z,8.60
2023-02-22T05:27:57.986Z,8.80
2023-02-22T05:30:28.575Z,8.40
2023-02-22T05:32:56.692Z,10.80
2023-02-22T05:35:24.268Z,13.60
2023-02-22T05:37:52.340Z,14.10
2023-02-22T05:40:22.061Z,14.10
2023-02-22T05:42:51.554Z,12.90
2023-02-22T05:45:22.257Z,12.80
2023-02-22T05:47:50.688Z,12.70
2023-02-22T05:50:19.801Z,12.90
2023-02-22T05:52:48.718Z,13.20
2023-02-22T05:55:18.756Z,12.70
2023-02-22T05:57:46.890Z,12.50
2023-02-22T06:00:20.467Z,12.60
2023-02-22T06:02:48.063Z,13.30
2023-02-22T06:05:15.713Z,12.40
2023-02-22T06:07:43.285Z,12.80
2023-02-22T06:10:10.893Z,15.00
2023-02-22T06:12:38.608Z,12.60
2023-02-22T06:15:06.965Z,13.20
2023-02-22T06:17:34.544Z,13.40
2023-02-22T06:20:02.678Z,14.10
2023-02-22T06:22:30.277Z,14.50
2023-02-22T06:24:57.877Z,15.70
2023-02-22T06:27:25.476Z,16.60
2023-02-22T06:29:53.329Z,16.00
2023-02-22T06:32:20.956Z,16.50
2023-02-22T06:34:48.578Z,15.80
2023-02-22T06:37:16.358Z,15.90
2023-02-22T06:39:44.019Z,17.80
2023-02-22T06:42:11.667Z,16.60
2023-02-22T06:44:39.276Z,16.20
2023-02-22T06:47:07.113Z,15.20
2023-02-22T06:49:34.760Z,15.30
2023-02-22T06:52:05.777Z,15.50
2023-02-22T06:54:33.452Z,14.80
2023-02-22T06:57:01.121Z,13.90
2023-02-22T06:59:28.736Z,15.80
2023-02-22T07:01:56.366Z,15.60
2023-02-22T07:04:24.034Z,14.40
2023-02-22T07:06:51.955Z,16.90
2023-02-22T07:09:19.696Z,14.50
2023-02-22T07:11:47.308Z,14.70
2023-02-22T07:14:17.396Z,13.20
2023-02-22T07:16:45.060Z,13.90
2023-02-22T07:19:12.703Z,14.70
2023-02-22T07:21:40.465Z,13.40
2023-02-22T07:24:08.155Z,15.60
2023-02-22T07:26:41.079Z,17.30
2023-02-22T07:29:08.730Z,13.90
2023-02-22T07:31:37.765Z,9.30
2023-02-22T07:34:05.594Z,11.00
2023-02-22T07:36:33.196Z,13.40
2023-02-22T07:39:00.826Z,10.10
2023-02-22T07:41:28.442Z,5.40
2023-02-22T07:43:56.060Z,3.00
2023-02-22T07:46:23.646Z,3.20
2023-02-22T07:48:51.208Z,3.10
2023-02-22T07:51:20.833Z,3.20
2023-02-22T07:53:48.619Z,3.60
2023-02-22T07:56:18.197Z,3.70
2023-02-22T07:58:45.824Z,3.40
2023-02-22T08:01:14.330Z,3.20
2023-02-22T08:03:42.540Z,4.00
2023-02-22T08:06:10.167Z,3.30
2023-02-22T08:08:37.826Z,4.50
2023-02-22T08:11:05.899Z,3.90
2023-02-22T08:13:34.483Z,3.30
2023-02-22T08:16:02.112Z,5.40
2023-02-22T08:18:29.791Z,5.40
2023-02-22T08:20:57.520Z,4.60
2023-02-22T08:23:26.920Z,3.60
2023-02-22T08:25:55.516Z,4.50
2023-02-22T08:28:24.591Z,3.60
2023-02-22T08:30:52.796Z,4.10
2023-02-22T08:33:21.131Z,4.50
2023-02-22T08:35:49.800Z,3.70
2023-02-22T08:38:23.730Z,3.40
2023-02-22T08:40:51.623Z,3.50
2023-02-22T08:43:20.366Z,3.90
2023-02-22T08:45:48.523Z,3.60
2023-02-22T08:48:16.611Z,3.80
2023-02-22T08:50:44.645Z,3.80
2023-02-22T08:53:13.827Z,3.80
2023-02-22T08:55:41.884Z,4.00
2023-02-22T08:58:10.097Z,3.70
2023-02-22T09:00:39.789Z,4.30
2023-02-22T09:03:10.194Z,4.80
2023-02-22T09:05:38.162Z,5.40
2023-02-22T09:08:05.926Z,4.40
2023-02-22T09:10:34.507Z,4.70
2023-02-22T09:13:03.959Z,4.60
2023-02-22T09:15:33.473Z,4.50
2023-02-22T09:18:01.221Z,4.90
2023-02-22T09:20:29.463Z,4.70
2023-02-22T09:22:57.353Z,3.90
2023-02-22T09:25:25.039Z,3.70
2023-02-22T09:27:53.486Z,3.90
2023-02-22T09:30:25.881Z,3.60
2023-02-22T09:32:55.802Z,3.00
2023-02-22T09:35:27.404Z,2.70
2023-02-22T09:38:00.147Z,3.50
2023-02-22T09:40:33.303Z,3.00
2023-02-22T09:43:35.747Z,3.80
2023-02-22T09:46:27.219Z,3.20
2023-02-22T09:49:09.476Z,3.10
2023-02-22T09:51:49.435Z,3.30
2023-02-22T09:54:28.633Z,3.20
2023-02-22T09:56:58.566Z,2.50
2023-02-22T09:59:39.635Z,3.30
2023-02-22T10:02:30.563Z,2.90
2023-02-22T10:05:17.758Z,3.40
2023-02-22T10:08:09.449Z,3.20
2023-02-22T10:10:39.400Z,3.60
2023-02-22T10:13:29.352Z,3.30
2023-02-22T10:16:06.654Z,3.00
2023-02-22T10:18:44.324Z,2.60
2023-02-22T10:21:38.754Z,2.90
2023-02-22T10:24:30.924Z,3.40
2023-02-22T10:26:59.221Z,3.00
2023-02-22T10:29:32.859Z,3.60
2023-02-22T10:32:03.683Z,3.90
2023-02-22T10:34:38.723Z,3.60
2023-02-22T10:37:28.501Z,5.10
2023-02-22T10:40:11.537Z,5.80
2023-02-22T10:42:39.349Z,4.60
2023-02-22T10:45:19.029Z,4.30
2023-02-22T10:47:47.330Z,3.20
2023-02-22T10:50:15.358Z,2.40
2023-02-22T10:52:43.015Z,2.50
2023-02-22T10:55:15.750Z,3.60
2023-02-22T10:57:48.005Z,3.60
2023-02-22T11:00:26.252Z,3.90
2023-02-22T11:02:59.685Z,4.00
2023-02-22T11:05:38.933Z,3.70
2023-02-22T11:08:22.127Z,3.70
2023-02-22T11:10:55.200Z,3.20
2023-02-22T11:13:25.971Z,3.30
2023-02-22T11:16:03.305Z,2.60
2023-02-22T11:18:33.917Z,2.40
2023-02-22T11:21:07.869Z,2.40
2023-02-22T11:23:36.607Z,3.00
2023-02-22T11:26:10.227Z,2.80
2023-02-22T11:28:49.352Z,3.10
2023-02-22T11:31:23.281Z,3.40
2023-02-22T11:36:40.495Z,3.80
2023-02-22T11:39:34.405Z,3.90
2023-02-22T11:42:28.719Z,3.60
2023-02-22T11:45:23.834Z,3.60
2023-02-22T11:48:01.473Z,3.40
2023-02-22T11:50:32.103Z,4.30
2023-02-22T11:53:18.478Z,4.60
2023-02-22T11:55:53.918Z,6.20
2023-02-22T11:58:30.872Z,5.20
2023-02-22T12:01:33.832Z,5.10
2023-02-22T12:04:23.831Z,5.50
2023-02-22T12:07:23.185Z,5.90
2023-02-22T12:10:06.313Z,6.90
2023-02-22T12:12:57.802Z,6.00
2023-02-22T12:15:28.874Z,6.70
2023-02-22T12:18:15.556Z,7.10
2023-02-22T12:20:51.901Z,7.60
2023-02-22T12:23:46.497Z,7.10
2023-02-22T12:26:20.014Z,7.00
2023-02-22T12:28:59.437Z,7.00
2023-02-22T12:31:39.051Z,7.20
2023-02-22T12:34:19.933Z,6.50
2023-02-22T12:37:01.616Z,6.60
2023-02-22T12:40:14.419Z,7.30
2023-02-22T12:42:48.299Z,6.80
2023-02-22T12:45:30.474Z,6.70
2023-02-22T12:48:22.201Z,6.70
2023-02-22T12:50:56.174Z,6.70
2023-02-22T12:53:31.953Z,7.20
2023-02-22T12:56:16.605Z,7.10
2023-02-22T12:59:11.296Z,6.70
2023-02-22T13:01:42.403Z,6.60
2023-02-22T13:04:20.437Z,7.60
2023-02-22T13:07:21.595Z,8.10
2023-02-22T13:10:24.679Z,7.60
2023-02-22T13:13:26.824Z,8.50
2023-02-22T13:16:05.627Z,8.70
2023-02-22T13:18:48.513Z,9.10
2023-02-22T13:21:21.310Z,7.90
2023-02-22T13:24:12.460Z,7.70
2023-02-22T13:27:02.008Z,6.70
2023-02-22T13:29:34.860Z,6.50
2023-02-22T13:32:40.882Z,6.00
2023-02-22T13:35:38.352Z,6.10
2023-02-22T13:38:05.917Z,6.80
2023-02-22T13:41:12.319Z,6.60
2023-02-22T13:44:10.912Z,6.60
2023-02-22T13:47:18.249Z,6.80
2023-02-22T13:50:07.394Z,7.00
2023-02-22T13:52:38.724Z,6.10
2023-02-22T13:55:17.997Z,6.70
2023-02-22T13:57:49.654Z,6.30
2023-02-22T14:00:23.245Z,6.10
2023-02-22T14:03:12.454Z,5.80
2023-02-22T14:05:41.578Z,6.60
2023-02-22T14:08:33.746Z,6.90
2023-02-22T14:11:14.977Z,6.20
2023-02-22T14:13:53.728Z,6.30
2023-02-22T14:16:24.390Z,6.50
2023-02-22T14:19:22.923Z,6.30
2023-02-22T14:22:02.225Z,5.80
2023-02-22T14:24:47.722Z,6.50
2023-02-22T14:27:17.555Z,6.10
2023-02-22T14:29:53.950Z,6.00
2023-02-22T14:32:30.835Z,6.30
2023-02-22T14:35:01.102Z,6.20
2023-02-22T14:37:36.346Z,6.00
2023-02-22T14:40:25.910Z,5.70
2023-02-22T14:43:25.191Z,5.50
2023-02-22T14:45:55.271Z,6.30
2023-02-22T14:48:42.762Z,5.70
2023-02-22T14:51:23.195Z,5.80
2023-02-22T14:54:13.705Z,6.20
2023-02-22T14:56:53.590Z,7.00
2023-02-22T14:59:27.773Z,7.20
2023-02-22T15:02:12.945Z,5.70
2023-02-22T15:04:44.034Z,7.70
2023-02-22T15:07:30.400Z,6.30
2023-02-22T15:10:21.726Z,9.40
2023-02-22T15:13:10.846Z,10.50
2023-02-22T15:15:49.444Z,7.60
2023-02-22T15:18:25.253Z,7.20
2023-02-22T15:20:57.573Z,6.90
2023-02-22T15:23:33.347Z,6.50
2023-02-22T15:26:01.889Z,5.10
2023-02-22T15:28:31.103Z,6.60
2023-02-22T15:31:37.658Z,7.30
2023-02-22T15:34:22.250Z,6.70
2023-02-22T15:36:54.585Z,7.60
2023-02-22T15:39:33.267Z,7.50
2023-02-22T15:42:09.620Z,7.00
2023-02-22T15:44:42.319Z,8.70
2023-02-22T15:47:16.925Z,9.10
2023-02-22T15:49:44.628Z,10.40
2023-02-22T15:52:24.179Z,10.70
2023-02-22T15:54:53.483Z,10.30
2023-02-22T15:57:23.761Z,10.40
2023-02-22T15:59:54.227Z,10.70
2023-02-22T16:02:30.804Z,10.50
2023-02-22T16:05:01.760Z,10.10
2023-02-22T16:07:29.840Z,10.00
2023-02-22T16:09:57.987Z,10.60
2023-02-22T16:12:28.043Z,10.80
2023-02-22T16:14:56.408Z,11.10
2023-02-22T16:17:35.465Z,9.80
2023-02-22T16:20:17.783Z,9.80
2023-02-22T16:22:49.203Z,8.70
2023-02-22T16:25:21.627Z,9.50
2023-02-22T16:27:55.844Z,9.10
2023-02-22T16:30:25.942Z,8.80
2023-02-22T16:32:56.180Z,12.50
2023-02-22T16:35:28.806Z,15.20
2023-02-22T16:38:05.557Z,15.70
2023-02-22T16:40:39.714Z,14.20
2023-02-22T16:43:11.748Z,12.70
2023-02-22T16:45:42.295Z,12.50
2023-02-22T16:48:22.053Z,12.50
2023-02-22T16:50:51.593Z,12.50
2023-02-22T16:53:22.303Z,11.60
2023-02-22T16:55:57.559Z,15.20
2023-02-22T16:58:29.335Z,13.50
2023-02-22T17:00:57.394Z,13.80
2023-02-22T17:03:26.494Z,17.40
2023-02-22T17:05:54.143Z,19.90
2023-02-22T17:08:22.276Z,19.20
2023-02-22T17:10:56.658Z,15.30
2023-02-22T17:13:27.230Z,26.40
2023-02-22T17:15:56.307Z,27.90
2023-02-22T17:18:28.812Z,23.30
2023-02-22T17:20:56.716Z,18.80
2023-02-22T17:23:24.691Z,14.00
2023-02-22T17:25:55.096Z,13.90
2023-02-22T17:28:24.628Z,12.00
2023-02-22T17:30:53.793Z,11.40
2023-02-22T17:33:26.544Z,11.20
2023-02-22T17:35:56.308Z,9.90
2023-02-22T17:38:26.051Z,10.50
2023-02-22T17:40:54.941Z,10.80
2023-02-22T17:43:23.915Z,10.20
2023-02-22T17:45:51.692Z,10.10
2023-02-22T17:48:19.837Z,12.00
2023-02-22T17:50:49.414Z,12.80
2023-02-22T17:53:21.683Z,12.30
2023-02-22T17:55:49.945Z,11.80
2023-02-22T17:58:18.328Z,11.60
2023-02-22T18:00:48.715Z,11.00
2023-02-22T18:03:25.299Z,11.50
2023-02-22T18:05:57.572Z,11.50
2023-02-22T18:08:27.932Z,10.90
2023-02-22T18:10:58.906Z,12.30
2023-02-22T18:13:27.589Z,12.20
2023-02-22T18:16:04.823Z,11.90
2023-02-22T18:18:32.631Z,12.60
2023-02-22T18:21:00.430Z,15.30
2023-02-22T18:23:30.201Z,13.50
2023-02-22T18:26:10.294Z,12.70
2023-02-22T18:28:39.924Z,12.70
2023-02-22T18:31:09.596Z,12.10
2023-02-22T18:33:38.261Z,11.20
2023-02-22T18:36:07.060Z,11.50
2023-02-22T18:38:34.822Z,12.20
2023-02-22T18:41:05.064Z,11.70
2023-02-22T18:43:35.431Z,11.30
2023-02-22T18:46:09.870Z,11.80
2023-02-22T18:48:38.585Z,11.50
2023-02-22T18:51:09.742Z,11.40
2023-02-22T18:53:38.780Z,10.50
2023-02-22T18:56:08.736Z,10.90
2023-02-22T18:58:38.740Z,10.30
2023-02-22T19:01:07.320Z,10.70
2023-02-22T19:03:38.197Z,10.50
2023-02-22T19:06:08.787Z,12.10
2023-02-22T19:08:41.078Z,12.30
2023-02-22T19:11:11.166Z,12.60
2023-02-22T19:13:38.919Z,14.90
2023-02-22T19:16:07.744Z,16.40
2023-02-22T19:18:36.605Z,12.60
2023-02-22T19:21:08.615Z,11.70
2023-02-22T19:23:38.102Z,12.20
2023-02-22T19:26:09.355Z,13.00
2023-02-22T19:28:37.373Z,12.00
2023-02-22T19:31:18.740Z,11.00
2023-02-22T19:33:48.386Z,13.20
2023-02-22T19:36:16.341Z,14.50
2023-02-22T19:38:44.845Z,12.40
2023-02-22T19:41:18.082Z,12.60
2023-02-22T19:43:48.534Z,12.70
2023-02-22T19:46:21.132Z,11.30
2023-02-22T19:48:49.384Z,11.00
2023-02-22T19:51:19.681Z,11.50
2023-02-22T19:53:47.419Z,10.20
2023-02-22T19:56:17.996Z,10.80
2023-02-22T19:58:48.349Z,10.70
2023-02-22T20:01:23.126Z,12.40
2023-02-22T20:03:54.959Z,10.50
2023-02-22T20:06:29.112Z,11.00
2023-02-22T20:08:57.226Z,10.60
2023-02-22T20:11:25.033Z,10.30
2023-02-22T20:13:55.475Z,10.20
2023-02-22T20:16:23.934Z,10.20
2023-02-22T20:18:51.618Z,9.70
2023-02-22T20:21:26.377Z,9.80
2023-02-22T20:23:57.176Z,9.90
2023-02-22T20:26:27.221Z,9.90
2023-02-22T20:28:55.244Z,10.10
2023-02-22T20:31:23.042Z,10.00
2023-02-22T20:33:55.523Z,11.30
2023-02-22T20:36:24.019Z,11.00
2023-02-22T20:38:56.421Z,12.30
2023-02-22T20:41:28.228Z,11.90
2023-02-22T20:43:56.346Z,12.70
2023-02-22T20:46:25.652Z,13.50
2023-02-22T20:48:57.908Z,13.70
2023-02-22T20:51:26.446Z,12.60
2023-02-22T20:53:54.371Z,13.30
2023-02-22T20:56:23.270Z,12.90
2023-02-22T20:58:50.949Z,12.60
2023-02-22T21:01:20.590Z,12.80
2023-02-22T21:03:49.790Z,12.30
2023-02-22T21:06:21.261Z,12.80
2023-02-22T21:08:53.571Z,12.40
2023-02-22T21:11:22.565Z,12.00
2023-02-22T21:13:51.160Z,12.50
2023-02-22T21:16:25.538Z,11.80
2023-02-22T21:18:55.492Z,12.00
2023-02-22T21:21:23.080Z,11.30
2023-02-22T21:23:53.476Z,11.70
2023-02-22T21:26:23.708Z,10.80
2023-02-22T21:28:52.285Z,10.80
2023-02-22T21:31:22.836Z,11.00
2023-02-22T21:33:53.145Z,10.80
2023-02-22T21:36:25.134Z,10.80
2023-02-22T21:38:55.722Z,10.70
2023-02-22T21:41:27.566Z,10.10
2023-02-22T21:43:57.708Z,10.40
2023-02-22T21:46:27.767Z,10.80
2023-02-22T21:48:58.439Z,10.60
2023-02-22T21:51:34.290Z,11.40
2023-02-22T21:54:05.116Z,11.50
2023-02-22T21:56:35.918Z,11.40
2023-02-22T21:59:11.586Z,10.60
2023-02-22T22:01:47.223Z,11.20
2023-02-22T22:04:20.729Z,11.80
2023-02-22T22:06:51.046Z,11.00
2023-02-22T22:09:19.807Z,9.70
2023-02-22T22:11:52.280Z,10.30
2023-02-22T22:14:23.134Z,8.90
2023-02-22T22:16:58.475Z,9.30
2023-02-22T22:19:29.202Z,9.20
2023-02-22T22:21:57.963Z,9.50
2023-02-22T22:24:28.693Z,10.20
2023-02-22T22:26:56.533Z,10.20
2023-02-22T22:29:28.518Z,10.20
2023-02-22T22:31:56.805Z,10.50
2023-02-22T22:34:24.598Z,9.80
2023-02-22T22:36:52.643Z,9.40
2023-02-22T22:39:21.052Z,10.00
2023-02-22T22:41:49.032Z,9.50
2023-02-22T22:44:22.053Z,9.30
2023-02-22T22:46:53.420Z,9.80
2023-02-22T22:49:23.454Z,10.00
2023-02-22T22:51:51.166Z,9.70
2023-02-22T22:54:18.783Z,9.60
2023-02-22T22:56:46.459Z,10.00
2023-02-22T22:59:15.206Z,9.80
2023-02-22T23:01:47.039Z,10.20
2023-02-22T23:04:16.472Z,9.90
2023-02-22T23:06:46.923Z,10.60
2023-02-22T23:09:26.496Z,10.60
2023-02-22T23:12:08.733Z,10.10
2023-02-22T23:14:39.805Z,10.30
2023-02-22T23:17:14.151Z,10.80
2023-02-22T23:19:44.941Z,9.70
2023-02-22T23:22:15.814Z,8.90
2023-02-22T23:24:45.034Z,9.80
2023-02-22T23:27:12.905Z,8.80
2023-02-22T23:29:42.349Z,9.10
2023-02-22T23:32:10.209Z,8.80
2023-02-22T23:34:41.019Z,8.50
2023-02-22T23:37:10.647Z,9.20
2023-02-22T23:39:38.557Z,9.30
2023-02-22T23:42:08.886Z,9.30
2023-02-22T23:44:36.917Z,9.10
2023-02-22T23:47:04.707Z,8.60
2023-02-22T23:49:38.775Z,9.40
2023-02-22T23:52:08.362Z,8.40
2023-02-22T23:54:40.198Z,9.30
2023-02-22T23:57:08.792Z,9.90
2023-02-22T23:59:40.354Z,9.40
